Hendrik-Ido-Ambacht, Netherlands
Current Conditions -  °F | °C
As of 3:25 PM on Monday 20 Oct 2014 (Local Time) from EHRD Reporting Station
Broken Clouds Broken Clouds  
Wind Chill: 61°   Ceiling: 4500
Heat Index: 61°   Visibility: 6mi
Dew Point: 52°   Wind: 20mph
Humidity: 72%   Direction: 240°WSW
Pressure: 29.97"   Gusts: NA
Location:  51.84°N, 4.64°E
Report Text: EHRD 201325Z AUTO 24017KT 200V270 9999 FEW022 SCT032 BKN04516/11 Q1015 NOSIG
Loading
Personal Weather Stations






























Interactive Weather Map
Tropical Storm Tracking
New forecast layout! Learn more

10-Day Weather Forecast

Advertisements
Track Severe Weather on mobile